Hlavní strana
METAR-TAF:

METAR-TAF

Letiště :

Acapulco, Mexiko

zeměpisná šířka: 16-46N, zeměpisná délka: 099-45W, výška: 5 m

Aktuální stav počasí

Zpráva byla vytvořena před 1 hodinou a 18 minutami, v 08:43 UTC
Bezvětří
Teplota 23°C
Vlhkost vzduchu 94%
Tlak 1011 hPa
Viditelnost: 11.3 km
Jasno

METAR: MMAA 100843Z 00000KT 7SM SKC 23/22 A2986 RMK SLP116 57010 904

Čas: 05:01 (10:01 UTC)

Předpověď počasí

Zpráva byla vytvořena před 5 hodinami a 39 minutami, v 04:22 UTC
Předpověď platná od 10 v 06 UTC do 11 v 12 UTC
Západní vítr 5 kt
Viditelnost: 10 km
Jasno
Od 10 v 1800 UTC
Západní vítr 15 kt
Viditelnost: 10 km
Polojasno ve výšce 30000 ft
Změna
od 11 v 01 UTC do 11 v 02 UTC
Severní vítr kt

TAF: MMAA 100422Z 1006/1112 28005KT P6SM SKC TX31/1019Z TN23/1010Z FM101800 28015KT P6SM SCT300 BECMG 1101/1102 00000KT

Stav a předpovědi počasí z více než 4 000 letišť (zprávy METAR a TAF).

Červené a žluté tečky na mapě představují dostupné meteorologické stanice.

Když kurzor umístíte na tečku, zobrazí se název stanice.

Pak kliknutím zobrazíte stav a předpověď počasí.

Chcete-li změnit mapu, kliknutím na zelené tlačítko se znaménkem +mapu přiblížíte, kliknutím na zelené tlačítko se znaménkem – mapu oddálíte a kliknutím na zelené šipky přejdete na sousední mapy.


METAR-TAF: